sensor_id;sensor_type;location;lat;lon;timestamp;P1;durP1;ratioP1;P2;durP2;ratioP2
54328;SDS011;40710;51.120;13.136;2023-04-24T16:32:15;1.72;;;1.72;;
54328;SDS011;40710;51.120;13.136;2023-04-24T16:34:40;1.81;;;1.81;;
54328;SDS011;40710;51.120;13.136;2023-04-24T16:37:05;1.74;;;1.74;;
54328;SDS011;40710;51.120;13.136;2023-04-24T16:39:29;2.99;;;2.99;;
54328;SDS011;40710;51.120;13.136;2023-04-24T16:41:54;2.00;;;2.00;;
54328;SDS011;40710;51.120;13.136;2023-04-24T16:44:19;1.16;;;1.16;;
54328;SDS011;40710;51.120;13.136;2023-04-24T16:46:43;1.01;;;1.01;;
54328;SDS011;40710;51.120;13.136;2023-04-24T16:49:08;0.97;;;0.97;;
54328;SDS011;40710;51.120;13.136;2023-04-24T16:51:33;0.83;;;0.83;;
54328;SDS011;40710;51.120;13.136;2023-04-24T16:53:57;0.90;;;0.90;;
54328;SDS011;40710;51.120;13.136;2023-04-24T16:56:22;0.80;;;0.80;;
54328;SDS011;40710;51.120;13.136;2023-04-24T16:58:47;0.89;;;0.89;;
54328;SDS011;40710;51.120;13.136;2023-04-24T17:01:11;0.77;;;0.77;;
54328;SDS011;40710;51.120;13.136;2023-04-24T17:03:36;0.79;;;0.79;;
54328;SDS011;40710;51.120;13.136;2023-04-24T17:06:00;0.69;;;0.69;;
54328;SDS011;40710;51.120;13.136;2023-04-24T17:08:25;0.83;;;0.83;;
54328;SDS011;40710;51.120;13.136;2023-04-24T17:10:49;1.93;;;1.93;;
54328;SDS011;40710;51.120;13.136;2023-04-24T17:13:14;3.76;;;3.75;;
54328;SDS011;40710;51.120;13.136;2023-04-24T17:15:38;1.77;;;1.77;;
54328;SDS011;40710;51.120;13.136;2023-04-24T17:18:04;0.77;;;0.77;;
54328;SDS011;40710;51.120;13.136;2023-04-24T17:20:29;0.85;;;0.85;;
54328;SDS011;40710;51.120;13.136;2023-04-24T17:22:53;1.30;;;1.30;;
54328;SDS011;40710;51.120;13.136;2023-04-24T17:25:19;1.43;;;1.43;;
54328;SDS011;40710;51.120;13.136;2023-04-24T17:27:44;0.85;;;0.85;;
54328;SDS011;40710;51.120;13.136;2023-04-24T17:30:09;0.90;;;0.90;;
54328;SDS011;40710;51.120;13.136;2023-04-24T17:32:34;0.86;;;0.86;;
54328;SDS011;40710;51.120;13.136;2023-04-24T17:34:59;0.98;;;0.98;;
54328;SDS011;40710;51.120;13.136;2023-04-24T17:37:25;0.91;;;0.91;;
54328;SDS011;40710;51.120;13.136;2023-04-24T17:39:49;0.94;;;0.94;;
54328;SDS011;40710;51.120;13.136;2023-04-24T17:42:14;1.55;;;1.55;;
54328;SDS011;40710;51.120;13.136;2023-04-24T17:44:39;1.19;;;1.19;;
54328;SDS011;40710;51.120;13.136;2023-04-24T17:47:03;1.69;;;1.69;;
54328;SDS011;40710;51.120;13.136;2023-04-24T17:49:28;0.93;;;0.93;;
54328;SDS011;40710;51.120;13.136;2023-04-24T17:51:52;0.92;;;0.92;;
54328;SDS011;40710;51.120;13.136;2023-04-24T17:54:17;0.78;;;0.78;;
54328;SDS011;40710;51.120;13.136;2023-04-24T17:56:41;0.77;;;0.77;;
54328;SDS011;40710;51.120;13.136;2023-04-24T17:59:06;0.81;;;0.81;;
54328;SDS011;40710;51.120;13.136;2023-04-24T18:01:30;0.78;;;0.78;;
54328;SDS011;40710;51.120;13.136;2023-04-24T18:03:55;0.92;;;0.92;;
54328;SDS011;40710;51.120;13.136;2023-04-24T18:06:20;0.95;;;0.95;;
54328;SDS011;40710;51.120;13.136;2023-04-24T18:08:44;0.86;;;0.86;;
54328;SDS011;40710;51.120;13.136;2023-04-24T18:11:09;0.97;;;0.97;;
54328;SDS011;40710;51.120;13.136;2023-04-24T18:13:33;1.05;;;1.05;;
54328;SDS011;40710;51.120;13.136;2023-04-24T18:15:58;0.98;;;0.98;;
54328;SDS011;40710;51.120;13.136;2023-04-24T18:18:22;1.04;;;1.04;;
54328;SDS011;40710;51.120;13.136;2023-04-24T18:20:47;1.07;;;1.07;;
54328;SDS011;40710;51.120;13.136;2023-04-24T18:23:11;1.29;;;1.29;;
54328;SDS011;40710;51.120;13.136;2023-04-24T18:25:36;1.34;;;1.34;;
54328;SDS011;40710;51.120;13.136;2023-04-24T18:28:00;1.35;;;1.35;;
54328;SDS011;40710;51.120;13.136;2023-04-24T18:30:25;1.43;;;1.43;;
54328;SDS011;40710;51.120;13.136;2023-04-24T18:32:51;1.61;;;1.61;;
54328;SDS011;40710;51.120;13.136;2023-04-24T18:35:17;1.56;;;1.56;;
54328;SDS011;40710;51.120;13.136;2023-04-24T18:37:43;1.39;;;1.39;;
54328;SDS011;40710;51.120;13.136;2023-04-24T18:40:08;1.38;;;1.38;;
54328;SDS011;40710;51.120;13.136;2023-04-24T18:42:34;1.37;;;1.37;;
54328;SDS011;40710;51.120;13.136;2023-04-24T18:44:58;3.01;;;3.01;;
54328;SDS011;40710;51.120;13.136;2023-04-24T18:47:24;2.79;;;2.79;;
54328;SDS011;40710;51.120;13.136;2023-04-24T18:49:49;2.47;;;2.47;;
54328;SDS011;40710;51.120;13.136;2023-04-24T18:52:14;1.62;;;1.62;;
54328;SDS011;40710;51.120;13.136;2023-04-24T18:54:38;5.75;;;5.70;;
54328;SDS011;40710;51.120;13.136;2023-04-24T18:57:04;7.82;;;7.59;;
54328;SDS011;40710;51.120;13.136;2023-04-24T18:59:29;1.91;;;1.85;;
54328;SDS011;40710;51.120;13.136;2023-04-24T19:01:53;1.51;;;1.50;;
54328;SDS011;40710;51.120;13.136;2023-04-24T19:04:18;1.57;;;1.57;;
54328;SDS011;40710;51.120;13.136;2023-04-24T19:06:44;1.63;;;1.63;;
54328;SDS011;40710;51.120;13.136;2023-04-24T19:09:09;1.88;;;1.88;;
54328;SDS011;40710;51.120;13.136;2023-04-24T19:11:33;1.77;;;1.77;;
54328;SDS011;40710;51.120;13.136;2023-04-24T19:13:58;1.89;;;1.89;;
54328;SDS011;40710;51.120;13.136;2023-04-24T19:16:26;2.12;;;2.12;;
54328;SDS011;40710;51.120;13.136;2023-04-24T19:18:50;1.86;;;1.86;;
54328;SDS011;40710;51.120;13.136;2023-04-24T19:21:15;1.81;;;1.81;;
54328;SDS011;40710;51.120;13.136;2023-04-24T19:23:40;1.86;;;1.86;;
54328;SDS011;40710;51.120;13.136;2023-04-24T19:26:05;1.91;;;1.91;;
54328;SDS011;40710;51.120;13.136;2023-04-24T19:28:30;1.81;;;1.81;;
54328;SDS011;40710;51.120;13.136;2023-04-24T19:30:55;1.90;;;1.90;;
54328;SDS011;40710;51.120;13.136;2023-04-24T19:33:21;1.85;;;1.85;;
54328;SDS011;40710;51.120;13.136;2023-04-24T19:35:46;2.21;;;2.21;;
54328;SDS011;40710;51.120;13.136;2023-04-24T19:38:11;2.26;;;2.26;;
54328;SDS011;40710;51.120;13.136;2023-04-24T19:40:35;2.17;;;2.17;;
54328;SDS011;40710;51.120;13.136;2023-04-24T19:43:00;9.34;;;9.21;;
54328;SDS011;40710;51.120;13.136;2023-04-24T19:45:24;9.98;;;9.71;;
54328;SDS011;40710;51.120;13.136;2023-04-24T19:47:49;3.51;;;3.51;;
54328;SDS011;40710;51.120;13.136;2023-04-24T19:50:14;6.05;;;5.99;;
54328;SDS011;40710;51.120;13.136;2023-04-24T19:52:38;2.82;;;2.81;;
54328;SDS011;40710;51.120;13.136;2023-04-24T19:55:03;2.35;;;2.35;;
54328;SDS011;40710;51.120;13.136;2023-04-24T19:57:28;2.49;;;2.49;;
54328;SDS011;40710;51.120;13.136;2023-04-24T19:59:52;2.19;;;2.19;;
54328;SDS011;40710;51.120;13.136;2023-04-24T20:02:17;2.59;;;2.59;;
54328;SDS011;40710;51.120;13.136;2023-04-24T20:04:41;2.65;;;2.65;;
54328;SDS011;40710;51.120;13.136;2023-04-24T20:07:06;2.57;;;2.57;;
54328;SDS011;40710;51.120;13.136;2023-04-24T20:09:31;2.44;;;2.44;;
54328;SDS011;40710;51.120;13.136;2023-04-24T20:11:56;2.39;;;2.39;;
54328;SDS011;40710;51.120;13.136;2023-04-24T20:14:20;2.42;;;2.42;;
54328;SDS011;40710;51.120;13.136;2023-04-24T20:16:45;2.53;;;2.53;;
54328;SDS011;40710;51.120;13.136;2023-04-24T20:19:10;2.73;;;2.73;;
54328;SDS011;40710;51.120;13.136;2023-04-24T20:21:34;2.77;;;2.77;;
54328;SDS011;40710;51.120;13.136;2023-04-24T20:23:59;2.85;;;2.85;;
54328;SDS011;40710;51.120;13.136;2023-04-24T20:26:23;2.89;;;2.89;;
54328;SDS011;40710;51.120;13.136;2023-04-24T20:28:48;2.91;;;2.91;;
54328;SDS011;40710;51.120;13.136;2023-04-24T20:31:12;3.05;;;3.05;;
54328;SDS011;40710;51.120;13.136;2023-04-24T20:33:37;2.94;;;2.94;;
54328;SDS011;40710;51.120;13.136;2023-04-24T20:36:04;3.03;;;3.03;;
54328;SDS011;40710;51.120;13.136;2023-04-24T20:38:29;3.19;;;3.19;;
54328;SDS011;40710;51.120;13.136;2023-04-24T20:40:54;3.38;;;3.38;;
54328;SDS011;40710;51.120;13.136;2023-04-24T20:43:19;3.33;;;3.33;;
54328;SDS011;40710;51.120;13.136;2023-04-24T20:45:44;3.21;;;3.21;;
54328;SDS011;40710;51.120;13.136;2023-04-24T20:48:09;3.73;;;3.73;;
54328;SDS011;40710;51.120;13.136;2023-04-24T20:50:34;3.63;;;3.63;;
54328;SDS011;40710;51.120;13.136;2023-04-24T20:53:01;3.56;;;3.56;;
54328;SDS011;40710;51.120;13.136;2023-04-24T20:55:26;3.68;;;3.68;;
54328;SDS011;40710;51.120;13.136;2023-04-24T20:57:51;3.38;;;3.38;;
54328;SDS011;40710;51.120;13.136;2023-04-24T21:00:15;3.98;;;3.98;;
54328;SDS011;40710;51.120;13.136;2023-04-24T21:02:40;4.13;;;4.13;;
54328;SDS011;40710;51.120;13.136;2023-04-24T21:05:05;4.01;;;4.01;;
54328;SDS011;40710;51.120;13.136;2023-04-24T21:07:29;3.88;;;3.88;;
54328;SDS011;40710;51.120;13.136;2023-04-24T21:09:54;3.95;;;3.95;;
54328;SDS011;40710;51.120;13.136;2023-04-24T21:12:18;3.99;;;3.99;;
54328;SDS011;40710;51.120;13.136;2023-04-24T21:14:43;4.04;;;4.04;;
54328;SDS011;40710;51.120;13.136;2023-04-24T21:17:07;4.10;;;4.10;;
54328;SDS011;40710;51.120;13.136;2023-04-24T21:19:32;4.06;;;4.06;;
54328;SDS011;40710;51.120;13.136;2023-04-24T21:21:56;4.55;;;4.55;;
54328;SDS011;40710;51.120;13.136;2023-04-24T21:24:21;5.58;;;5.58;;
54328;SDS011;40710;51.120;13.136;2023-04-24T21:26:45;5.26;;;5.26;;
54328;SDS011;40710;51.120;13.136;2023-04-24T21:29:10;4.43;;;4.43;;
54328;SDS011;40710;51.120;13.136;2023-04-24T21:31:35;4.10;;;4.10;;
54328;SDS011;40710;51.120;13.136;2023-04-24T21:33:59;4.05;;;4.05;;
54328;SDS011;40710;51.120;13.136;2023-04-24T21:36:24;4.40;;;4.40;;
54328;SDS011;40710;51.120;13.136;2023-04-24T21:38:48;4.26;;;4.26;;
54328;SDS011;40710;51.120;13.136;2023-04-24T21:41:13;4.26;;;4.26;;
54328;SDS011;40710;51.120;13.136;2023-04-24T21:43:37;4.51;;;4.51;;
54328;SDS011;40710;51.120;13.136;2023-04-24T21:46:02;4.54;;;4.54;;
54328;SDS011;40710;51.120;13.136;2023-04-24T21:48:27;4.54;;;4.54;;
54328;SDS011;40710;51.120;13.136;2023-04-24T21:50:51;4.83;;;4.83;;
54328;SDS011;40710;51.120;13.136;2023-04-24T21:53:16;4.57;;;4.57;;
54328;SDS011;40710;51.120;13.136;2023-04-24T21:55:40;4.55;;;4.55;;
54328;SDS011;40710;51.120;13.136;2023-04-24T21:58:05;4.54;;;4.54;;
54328;SDS011;40710;51.120;13.136;2023-04-24T22:00:29;4.56;;;4.56;;
54328;SDS011;40710;51.120;13.136;2023-04-24T22:02:54;4.39;;;4.39;;
54328;SDS011;40710;51.120;13.136;2023-04-24T22:05:18;4.41;;;4.41;;
54328;SDS011;40710;51.120;13.136;2023-04-24T22:07:43;4.60;;;4.60;;
54328;SDS011;40710;51.120;13.136;2023-04-24T22:10:08;4.67;;;4.67;;
54328;SDS011;40710;51.120;13.136;2023-04-24T22:12:34;5.10;;;5.10;;
54328;SDS011;40710;51.120;13.136;2023-04-24T22:14:59;4.82;;;4.82;;
54328;SDS011;40710;51.120;13.136;2023-04-24T22:17:23;4.72;;;4.72;;
54328;SDS011;40710;51.120;13.136;2023-04-24T22:19:48;5.12;;;5.12;;
54328;SDS011;40710;51.120;13.136;2023-04-24T22:22:12;4.99;;;4.99;;
54328;SDS011;40710;51.120;13.136;2023-04-24T22:24:37;5.25;;;5.25;;
54328;SDS011;40710;51.120;13.136;2023-04-24T22:27:01;4.93;;;4.93;;
54328;SDS011;40710;51.120;13.136;2023-04-24T22:29:26;5.05;;;5.05;;
54328;SDS011;40710;51.120;13.136;2023-04-24T22:31:51;5.38;;;5.38;;
54328;SDS011;40710;51.120;13.136;2023-04-24T22:34:19;5.46;;;5.46;;
54328;SDS011;40710;51.120;13.136;2023-04-24T22:36:43;5.49;;;5.49;;
54328;SDS011;40710;51.120;13.136;2023-04-24T22:39:08;5.55;;;5.55;;
54328;SDS011;40710;51.120;13.136;2023-04-24T22:41:33;5.48;;;5.48;;
54328;SDS011;40710;51.120;13.136;2023-04-24T22:43:58;5.68;;;5.68;;
54328;SDS011;40710;51.120;13.136;2023-04-24T22:46:22;5.91;;;5.91;;
54328;SDS011;40710;51.120;13.136;2023-04-24T22:48:48;6.08;;;6.08;;
54328;SDS011;40710;51.120;13.136;2023-04-24T22:51:12;5.71;;;5.71;;
54328;SDS011;40710;51.120;13.136;2023-04-24T22:53:37;5.15;;;5.14;;
54328;SDS011;40710;51.120;13.136;2023-04-24T22:56:01;5.31;;;5.27;;
54328;SDS011;40710;51.120;13.136;2023-04-24T22:58:26;5.24;;;5.24;;
54328;SDS011;40710;51.120;13.136;2023-04-24T23:00:50;5.27;;;5.27;;
54328;SDS011;40710;51.120;13.136;2023-04-24T23:03:15;5.28;;;5.28;;
54328;SDS011;40710;51.120;13.136;2023-04-24T23:05:40;5.51;;;5.51;;
54328;SDS011;40710;51.120;13.136;2023-04-24T23:08:04;5.37;;;5.37;;
54328;SDS011;40710;51.120;13.136;2023-04-24T23:10:29;5.61;;;5.61;;
54328;SDS011;40710;51.120;13.136;2023-04-24T23:12:53;5.35;;;5.35;;
54328;SDS011;40710;51.120;13.136;2023-04-24T23:15:18;5.24;;;5.24;;
54328;SDS011;40710;51.120;13.136;2023-04-24T23:17:43;5.05;;;5.05;;
54328;SDS011;40710;51.120;13.136;2023-04-24T23:20:09;6.30;;;6.30;;
54328;SDS011;40710;51.120;13.136;2023-04-24T23:22:38;8.81;;;8.81;;
54328;SDS011;40710;51.120;13.136;2023-04-24T23:25:03;10.45;;;10.45;;
54328;SDS011;40710;51.120;13.136;2023-04-24T23:27:27;8.41;;;8.41;;
54328;SDS011;40710;51.120;13.136;2023-04-24T23:29:52;5.92;;;5.92;;
54328;SDS011;40710;51.120;13.136;2023-04-24T23:32:16;5.50;;;5.50;;
54328;SDS011;40710;51.120;13.136;2023-04-24T23:34:41;5.85;;;5.85;;
54328;SDS011;40710;51.120;13.136;2023-04-24T23:37:05;5.79;;;5.79;;
54328;SDS011;40710;51.120;13.136;2023-04-24T23:39:30;5.73;;;5.73;;
54328;SDS011;40710;51.120;13.136;2023-04-24T23:41:55;5.86;;;5.86;;
54328;SDS011;40710;51.120;13.136;2023-04-24T23:44:21;6.16;;;6.16;;
54328;SDS011;40710;51.120;13.136;2023-04-24T23:46:45;5.74;;;5.74;;
54328;SDS011;40710;51.120;13.136;2023-04-24T23:49:10;6.19;;;6.19;;
54328;SDS011;40710;51.120;13.136;2023-04-24T23:51:34;6.09;;;6.09;;
54328;SDS011;40710;51.120;13.136;2023-04-24T23:53:59;6.29;;;6.29;;
54328;SDS011;40710;51.120;13.136;2023-04-24T23:56:24;6.20;;;6.20;;
54328;SDS011;40710;51.120;13.136;2023-04-24T23:58:49;6.09;;;6.09;;
